createdAt,value
2023-06-11T00:05:19.603Z,20.7
2023-06-11T00:15:19.803Z,20.6
2023-06-11T00:25:20.000Z,20.4
2023-06-11T00:35:20.201Z,20.4
2023-06-11T00:45:20.472Z,20.2
2023-06-11T00:55:20.575Z,20
2023-06-11T01:05:20.883Z,19.8
2023-06-11T01:15:20.971Z,19.7
2023-06-11T01:25:21.157Z,19.6
2023-06-11T01:35:21.376Z,19.5
2023-06-11T01:45:21.538Z,19.3
2023-06-11T01:55:21.766Z,19.2
2023-06-11T02:05:21.969Z,19.1
2023-06-11T02:15:22.131Z,19.1
2023-06-11T02:25:22.396Z,19
2023-06-11T02:35:22.614Z,18.8
2023-06-11T02:45:22.772Z,18.6
2023-06-11T02:55:22.905Z,18.5
2023-06-11T03:05:23.099Z,18.4
2023-06-11T03:15:23.379Z,18.3
2023-06-11T03:25:23.496Z,18.3
2023-06-11T03:35:23.742Z,18.1
2023-06-11T03:45:23.888Z,18.1
2023-06-11T03:55:24.083Z,18.1
2023-06-11T04:05:24.305Z,18.1
2023-06-11T04:15:24.555Z,18.1
2023-06-11T04:25:24.706Z,18.2
2023-06-11T04:35:24.876Z,18.4
2023-06-11T04:45:25.067Z,18.6
2023-06-11T05:05:25.473Z,19.5
2023-06-11T05:15:25.669Z,19.8
2023-06-11T05:25:25.840Z,20.3
2023-06-11T05:35:26.042Z,20.8
2023-06-11T05:45:26.226Z,21.1
2023-06-11T05:55:26.496Z,21.5
2023-06-11T06:05:26.609Z,21.7
2023-06-11T06:15:26.817Z,22
2023-06-11T06:25:27.005Z,22.2
2023-06-11T06:35:27.222Z,22.8
2023-06-11T06:45:27.391Z,23
2023-06-11T06:55:27.586Z,23.3
2023-06-11T07:05:27.797Z,23.7
2023-06-11T07:15:27.989Z,24.3
2023-06-11T07:25:28.154Z,24.7
2023-06-11T07:35:28.365Z,25.2
2023-06-11T07:45:28.555Z,25.5
2023-06-11T07:55:28.767Z,26
2023-06-11T08:05:29.011Z,26.3
2023-06-11T08:15:29.152Z,26.5
2023-06-11T08:25:29.359Z,27.1
2023-06-11T08:35:29.521Z,27
2023-06-11T08:45:29.696Z,27.2
2023-06-11T08:55:29.902Z,27.6
2023-06-11T09:05:30.122Z,27.6
2023-06-11T09:25:30.468Z,28
2023-06-11T09:35:30.731Z,28.3
2023-06-11T09:45:30.933Z,28.7
2023-06-11T09:55:31.048Z,28.7
2023-06-11T10:05:31.240Z,28.8
2023-06-11T10:15:31.445Z,29.5
2023-06-11T10:25:31.684Z,29.3
2023-06-11T10:35:31.836Z,29.5
2023-06-11T10:45:32.045Z,29.6
2023-06-11T10:55:32.248Z,29.9
2023-06-11T11:05:32.404Z,30.2
2023-06-11T11:15:32.587Z,30.1
2023-06-11T11:25:32.787Z,30.7
2023-06-11T11:35:32.985Z,30.6
2023-06-11T11:55:33.427Z,30.2
2023-06-11T12:15:33.751Z,29.8
2023-06-11T12:25:34.042Z,29.5
2023-06-11T12:35:34.155Z,30
2023-06-11T12:45:34.314Z,30.3
2023-06-11T12:55:34.549Z,30.5
2023-06-11T13:05:34.704Z,30.3
2023-06-11T13:15:34.909Z,29.9
2023-06-11T13:25:35.083Z,30
2023-06-11T13:35:35.295Z,29.7
2023-06-11T13:45:35.486Z,29.1
2023-06-11T13:55:35.689Z,29.6
2023-06-11T14:05:35.886Z,29.7
2023-06-11T14:15:36.134Z,29
2023-06-11T14:25:36.264Z,29
2023-06-11T14:35:36.455Z,29
2023-06-11T14:45:38.120Z,29.3
2023-06-11T14:55:36.891Z,30.2
2023-06-11T15:05:37.041Z,29.9
2023-06-11T15:15:37.260Z,30.2
2023-06-11T15:25:37.428Z,30.2
2023-06-11T15:35:37.691Z,30.3
2023-06-11T15:45:37.868Z,30.4
2023-06-11T15:55:37.995Z,30.1
2023-06-11T16:05:38.203Z,30.1
2023-06-11T16:15:38.416Z,29.9
2023-06-11T16:25:38.592Z,29.8
2023-06-11T16:35:38.780Z,29.6
2023-06-11T16:45:38.974Z,29
2023-06-11T16:55:39.199Z,28.7
2023-06-11T17:05:39.352Z,28.5
2023-06-11T17:15:39.580Z,28.5
2023-06-11T17:25:39.739Z,28.4
2023-06-11T17:45:40.125Z,28.1
2023-06-11T17:55:40.325Z,28
2023-06-11T18:05:40.510Z,27.8
2023-06-11T18:25:40.920Z,27.4
2023-06-11T18:35:41.091Z,27.2
2023-06-11T18:45:41.359Z,26.9
2023-06-11T18:55:41.467Z,26.7
2023-06-11T19:05:41.665Z,26.4
2023-06-11T19:15:41.863Z,26.1
2023-06-11T19:25:42.047Z,25.8
2023-06-11T19:35:42.261Z,25.5
2023-06-11T19:45:42.457Z,25.3
2023-06-11T19:55:42.636Z,24.9
2023-06-11T20:05:42.963Z,24.4
2023-06-11T20:15:43.040Z,23.9
2023-06-11T20:25:43.217Z,23.6
2023-06-11T20:35:43.467Z,23.3
2023-06-11T20:55:43.815Z,23.3
2023-06-11T21:05:43.989Z,23.3
2023-06-11T21:15:44.302Z,23.2
2023-06-11T21:35:44.585Z,22.7
2023-06-11T21:45:44.759Z,22.7
2023-06-11T21:55:44.950Z,22.6
2023-06-11T22:05:45.154Z,22.4
2023-06-11T22:15:45.326Z,22.2
2023-06-11T22:25:45.527Z,21.9
2023-06-11T22:35:45.739Z,21.7
2023-06-11T22:45:45.924Z,21.4
2023-06-11T22:55:46.117Z,21.3
2023-06-11T23:05:46.307Z,21
2023-06-11T23:15:46.505Z,20.8
2023-06-11T23:25:46.696Z,20.6
2023-06-11T23:35:46.887Z,20.3
2023-06-11T23:45:47.147Z,20
2023-06-11T23:55:47.285Z,19.7
